sensor_id;sensor_type;location;lat;lon;timestamp;pressure;altitude;pressure_sealevel;temperature;humidity
77366;BME280;66430;50.182;11.704;2023-01-15T00:00:58;93299.12;;;9.09;45.05
77366;BME280;66430;50.182;11.704;2023-01-15T00:03:23;93286.98;;;9.14;45.01
77366;BME280;66430;50.182;11.704;2023-01-15T00:05:49;93290.40;;;9.75;44.77
77366;BME280;66430;50.182;11.704;2023-01-15T00:08:14;93281.26;;;9.44;44.38
77366;BME280;66430;50.182;11.704;2023-01-15T00:10:40;93283.68;;;9.82;44.31
77366;BME280;66430;50.182;11.704;2023-01-15T00:13:05;93280.90;;;9.88;44.26
77366;BME280;66430;50.182;11.704;2023-01-15T00:15:31;93273.09;;;9.46;44.55
77366;BME280;66430;50.182;11.704;2023-01-15T00:17:56;93270.79;;;9.59;44.20
77366;BME280;66430;50.182;11.704;2023-01-15T00:20:22;93247.45;;;9.77;44.31
77366;BME280;66430;50.182;11.704;2023-01-15T00:22:48;93239.23;;;9.55;44.44
77366;BME280;66430;50.182;11.704;2023-01-15T00:25:17;93249.23;;;9.57;45.24
77366;BME280;66430;50.182;11.704;2023-01-15T00:27:38;93238.88;;;9.55;45.31
77366;BME280;66430;50.182;11.704;2023-01-15T00:30:04;93234.60;;;9.29;45.47
77366;BME280;66430;50.182;11.704;2023-01-15T00:32:29;93236.20;;;9.71;45.12
77366;BME280;66430;50.182;11.704;2023-01-15T00:34:54;93233.05;;;9.73;44.69
77366;BME280;66430;50.182;11.704;2023-01-15T00:37:20;93222.48;;;9.91;44.43
77366;BME280;66430;50.182;11.704;2023-01-15T00:39:45;93227.90;;;9.74;44.68
77366;BME280;66430;50.182;11.704;2023-01-15T00:42:16;93212.19;;;9.86;44.58
77366;BME280;66430;50.182;11.704;2023-01-15T00:44:36;93221.84;;;10.11;44.63
77366;BME280;66430;50.182;11.704;2023-01-15T00:47:02;93226.09;;;9.74;44.52
77366;BME280;66430;50.182;11.704;2023-01-15T00:49:28;93216.79;;;9.53;45.15
77366;BME280;66430;50.182;11.704;2023-01-15T00:51:53;93215.20;;;9.29;45.31
77366;BME280;66430;50.182;11.704;2023-01-15T00:54:18;93215.56;;;9.86;44.74
77366;BME280;66430;50.182;11.704;2023-01-15T00:56:44;93214.94;;;9.95;44.63
77366;BME280;66430;50.182;11.704;2023-01-15T00:59:09;93209.24;;;9.80;44.96
77366;BME280;66430;50.182;11.704;2023-01-15T01:01:35;93215.14;;;9.61;44.96
77366;BME280;66430;50.182;11.704;2023-01-15T01:04:00;93208.51;;;10.26;44.46
77366;BME280;66430;50.182;11.704;2023-01-15T01:06:26;93206.94;;;9.91;44.61
77366;BME280;66430;50.182;11.704;2023-01-15T01:08:51;93208.19;;;10.53;44.13
77366;BME280;66430;50.182;11.704;2023-01-15T01:11:19;93199.66;;;9.93;44.34
77366;BME280;66430;50.182;11.704;2023-01-15T01:13:43;93194.38;;;9.79;44.89
77366;BME280;66430;50.182;11.704;2023-01-15T01:16:24;93194.90;;;10.06;44.54
77366;BME280;66430;50.182;11.704;2023-01-15T01:18:35;93192.61;;;10.09;44.48
77366;BME280;66430;50.182;11.704;2023-01-15T01:20:58;93190.95;;;10.16;44.84
77366;BME280;66430;50.182;11.704;2023-01-15T01:23:24;93184.27;;;9.87;44.63
77366;BME280;66430;50.182;11.704;2023-01-15T01:25:49;93182.13;;;9.79;44.59
77366;BME280;66430;50.182;11.704;2023-01-15T01:28:15;93179.53;;;9.81;44.71
77366;BME280;66430;50.182;11.704;2023-01-15T01:30:40;93181.29;;;9.99;44.24
77366;BME280;66430;50.182;11.704;2023-01-15T01:33:06;93179.19;;;10.12;44.20
77366;BME280;66430;50.182;11.704;2023-01-15T01:35:31;93176.90;;;9.78;44.79
77366;BME280;66430;50.182;11.704;2023-01-15T01:37:57;93164.94;;;10.13;44.57
77366;BME280;66430;50.182;11.704;2023-01-15T01:40:22;93162.17;;;9.97;44.56
77366;BME280;66430;50.182;11.704;2023-01-15T01:42:48;93151.23;;;9.76;44.81
77366;BME280;66430;50.182;11.704;2023-01-15T01:45:22;93157.30;;;10.00;44.39
77366;BME280;66430;50.182;11.704;2023-01-15T01:47:39;93145.95;;;9.83;44.72
77366;BME280;66430;50.182;11.704;2023-01-15T01:50:13;93155.73;;;10.35;44.25
77366;BME280;66430;50.182;11.704;2023-01-15T01:52:35;93148.76;;;9.75;44.78
77366;BME280;66430;50.182;11.704;2023-01-15T01:54:55;93147.57;;;9.82;44.61
77366;BME280;66430;50.182;11.704;2023-01-15T01:57:21;93152.10;;;10.24;43.92
77366;BME280;66430;50.182;11.704;2023-01-15T01:59:46;93140.87;;;9.78;44.58
77366;BME280;66430;50.182;11.704;2023-01-15T02:02:12;93132.47;;;9.82;44.63
77366;BME280;66430;50.182;11.704;2023-01-15T02:04:37;93122.00;;;9.41;45.41
77366;BME280;66430;50.182;11.704;2023-01-15T02:07:03;93111.80;;;9.89;44.51
77366;BME280;66430;50.182;11.704;2023-01-15T02:09:28;93105.27;;;9.74;44.90
77366;BME280;66430;50.182;11.704;2023-01-15T02:11:56;93098.81;;;9.29;45.65
77366;BME280;66430;50.182;11.704;2023-01-15T02:14:24;93089.50;;;9.38;45.46
77366;BME280;66430;50.182;11.704;2023-01-15T02:16:47;93093.58;;;9.42;45.47
77366;BME280;66430;50.182;11.704;2023-01-15T02:19:18;93096.17;;;9.60;45.01
77366;BME280;66430;50.182;11.704;2023-01-15T02:21:44;93093.81;;;9.62;45.09
77366;BME280;66430;50.182;11.704;2023-01-15T02:24:08;93089.60;;;9.91;44.63
77366;BME280;66430;50.182;11.704;2023-01-15T02:28:54;93082.27;;;9.51;45.38
77366;BME280;66430;50.182;11.704;2023-01-15T02:31:21;93080.24;;;9.65;45.29
77366;BME280;66430;50.182;11.704;2023-01-15T02:33:48;93078.86;;;9.91;44.89
77366;BME280;66430;50.182;11.704;2023-01-15T02:36:11;93071.61;;;10.02;45.57
77366;BME280;66430;50.182;11.704;2023-01-15T02:38:42;93080.08;;;9.65;45.59
77366;BME280;66430;50.182;11.704;2023-01-15T02:41:00;93071.09;;;10.07;45.76
77366;BME280;66430;50.182;11.704;2023-01-15T02:43:26;93079.52;;;9.95;46.10
77366;BME280;66430;50.182;11.704;2023-01-15T02:45:55;93078.47;;;10.04;45.90
77366;BME280;66430;50.182;11.704;2023-01-15T02:48:19;93076.64;;;9.73;46.11
77366;BME280;66430;50.182;11.704;2023-01-15T02:50:43;93083.16;;;9.70;46.74
77366;BME280;66430;50.182;11.704;2023-01-15T02:53:09;93083.82;;;9.75;46.69
77366;BME280;66430;50.182;11.704;2023-01-15T02:55:35;93072.07;;;10.07;46.51
77366;BME280;66430;50.182;11.704;2023-01-15T02:58:01;93076.77;;;9.56;47.00
77366;BME280;66430;50.182;11.704;2023-01-15T03:00:24;93073.15;;;8.97;47.33
77366;BME280;66430;50.182;11.704;2023-01-15T03:02:52;93070.06;;;9.45;47.37
77366;BME280;66430;50.182;11.704;2023-01-15T03:05:17;93067.43;;;9.73;47.42
77366;BME280;66430;50.182;11.704;2023-01-15T03:07:43;93068.49;;;9.52;47.42
77366;BME280;66430;50.182;11.704;2023-01-15T03:10:19;93069.29;;;9.79;47.38
77366;BME280;66430;50.182;11.704;2023-01-15T03:12:36;93063.39;;;9.78;46.87
77366;BME280;66430;50.182;11.704;2023-01-15T03:15:01;93062.04;;;9.76;47.00
77366;BME280;66430;50.182;11.704;2023-01-15T03:17:23;93058.46;;;9.91;46.75
77366;BME280;66430;50.182;11.704;2023-01-15T03:19:49;93065.10;;;10.06;46.40
77366;BME280;66430;50.182;11.704;2023-01-15T03:22:16;93058.33;;;9.71;47.04
77366;BME280;66430;50.182;11.704;2023-01-15T03:24:42;93056.02;;;9.70;47.16
77366;BME280;66430;50.182;11.704;2023-01-15T03:27:03;93055.91;;;9.95;46.73
77366;BME280;66430;50.182;11.704;2023-01-15T03:29:30;93049.64;;;9.56;47.10
77366;BME280;66430;50.182;11.704;2023-01-15T03:31:54;93046.62;;;9.86;47.20
77366;BME280;66430;50.182;11.704;2023-01-15T03:34:19;93054.15;;;10.27;46.31
77366;BME280;66430;50.182;11.704;2023-01-15T03:36:44;93038.42;;;9.87;47.10
77366;BME280;66430;50.182;11.704;2023-01-15T03:39:10;93048.72;;;9.92;47.09
77366;BME280;66430;50.182;11.704;2023-01-15T03:41:47;93032.59;;;9.90;47.18
77366;BME280;66430;50.182;11.704;2023-01-15T03:44:09;93033.97;;;9.74;48.06
77366;BME280;66430;50.182;11.704;2023-01-15T03:46:41;93029.84;;;9.77;48.14
77366;BME280;66430;50.182;11.704;2023-01-15T03:48:57;93021.68;;;9.84;47.48
77366;BME280;66430;50.182;11.704;2023-01-15T03:51:23;93029.67;;;9.50;47.72
77366;BME280;66430;50.182;11.704;2023-01-15T03:53:47;93024.13;;;9.80;47.55
77366;BME280;66430;50.182;11.704;2023-01-15T03:56:15;93029.59;;;9.30;48.09
77366;BME280;66430;50.182;11.704;2023-01-15T03:58:38;93024.66;;;9.72;47.15
77366;BME280;66430;50.182;11.704;2023-01-15T04:01:02;93012.62;;;10.07;47.00
77366;BME280;66430;50.182;11.704;2023-01-15T04:03:26;93011.18;;;9.75;47.73
77366;BME280;66430;50.182;11.704;2023-01-15T04:05:51;93016.59;;;9.66;47.94
77366;BME280;66430;50.182;11.704;2023-01-15T04:08:16;93013.09;;;9.44;48.39
77366;BME280;66430;50.182;11.704;2023-01-15T04:10:50;93011.37;;;9.98;47.79
77366;BME280;66430;50.182;11.704;2023-01-15T04:13:07;93013.47;;;10.00;47.30
77366;BME280;66430;50.182;11.704;2023-01-15T04:15:32;93015.69;;;9.86;47.60
77366;BME280;66430;50.182;11.704;2023-01-15T04:17:58;93018.76;;;10.09;47.25
77366;BME280;66430;50.182;11.704;2023-01-15T04:20:23;93005.52;;;9.83;48.15
77366;BME280;66430;50.182;11.704;2023-01-15T04:22:49;93006.58;;;9.73;47.85
77366;BME280;66430;50.182;11.704;2023-01-15T04:25:14;93005.56;;;10.08;47.19
77366;BME280;66430;50.182;11.704;2023-01-15T04:27:39;93005.05;;;9.61;47.25
77366;BME280;66430;50.182;11.704;2023-01-15T04:30:06;93011.49;;;9.72;47.51
77366;BME280;66430;50.182;11.704;2023-01-15T04:32:31;93011.56;;;9.86;47.47
77366;BME280;66430;50.182;11.704;2023-01-15T04:34:56;93007.84;;;9.91;47.86
77366;BME280;66430;50.182;11.704;2023-01-15T04:37:21;93007.04;;;10.02;47.20
77366;BME280;66430;50.182;11.704;2023-01-15T04:39:47;92990.41;;;9.54;47.92
77366;BME280;66430;50.182;11.704;2023-01-15T04:42:13;92992.19;;;10.39;47.26
77366;BME280;66430;50.182;11.704;2023-01-15T04:44:38;92987.13;;;9.63;47.68
77366;BME280;66430;50.182;11.704;2023-01-15T04:47:03;92974.17;;;9.51;47.84
77366;BME280;66430;50.182;11.704;2023-01-15T04:49:29;92973.70;;;9.94;47.13
77366;BME280;66430;50.182;11.704;2023-01-15T04:51:54;92999.29;;;10.00;47.13
77366;BME280;66430;50.182;11.704;2023-01-15T04:54:20;92988.44;;;9.75;47.25
77366;BME280;66430;50.182;11.704;2023-01-15T04:56:46;92978.45;;;9.78;46.59
77366;BME280;66430;50.182;11.704;2023-01-15T04:59:11;92970.75;;;9.58;47.68
77366;BME280;66430;50.182;11.704;2023-01-15T05:01:36;92978.07;;;9.71;47.41
77366;BME280;66430;50.182;11.704;2023-01-15T05:04:02;92974.70;;;9.95;46.82
77366;BME280;66430;50.182;11.704;2023-01-15T05:06:27;92977.08;;;9.77;47.01
77366;BME280;66430;50.182;11.704;2023-01-15T05:08:53;92976.66;;;9.74;47.26
77366;BME280;66430;50.182;11.704;2023-01-15T05:11:18;92970.10;;;10.08;46.68
77366;BME280;66430;50.182;11.704;2023-01-15T05:13:43;92962.29;;;9.80;47.01
77366;BME280;66430;50.182;11.704;2023-01-15T05:16:12;92962.88;;;9.42;47.88
77366;BME280;66430;50.182;11.704;2023-01-15T05:18:35;92965.26;;;9.77;47.21
77366;BME280;66430;50.182;11.704;2023-01-15T05:21:00;92958.79;;;9.72;47.22
77366;BME280;66430;50.182;11.704;2023-01-15T05:23:25;92954.58;;;9.42;47.39
77366;BME280;66430;50.182;11.704;2023-01-15T05:25:51;92953.97;;;9.82;46.83
77366;BME280;66430;50.182;11.704;2023-01-15T05:28:18;92960.70;;;10.01;46.85
77366;BME280;66430;50.182;11.704;2023-01-15T05:30:42;92958.21;;;10.21;46.84
77366;BME280;66430;50.182;11.704;2023-01-15T05:33:07;92970.30;;;10.21;46.56
77366;BME280;66430;50.182;11.704;2023-01-15T05:35:32;92970.27;;;10.24;46.93
77366;BME280;66430;50.182;11.704;2023-01-15T05:37:58;92966.20;;;9.83;46.33
77366;BME280;66430;50.182;11.704;2023-01-15T05:40:23;92961.41;;;10.30;46.44
77366;BME280;66430;50.182;11.704;2023-01-15T05:42:49;92952.98;;;9.91;46.76
77366;BME280;66430;50.182;11.704;2023-01-15T05:45:15;92953.53;;;9.86;46.85
77366;BME280;66430;50.182;11.704;2023-01-15T05:47:40;92949.84;;;10.15;46.78
77366;BME280;66430;50.182;11.704;2023-01-15T05:50:06;92957.61;;;10.15;46.34
77366;BME280;66430;50.182;11.704;2023-01-15T05:52:31;92958.92;;;10.10;47.00
77366;BME280;66430;50.182;11.704;2023-01-15T05:54:56;92957.86;;;10.14;46.88
77366;BME280;66430;50.182;11.704;2023-01-15T05:57:22;92959.24;;;10.07;47.11
77366;BME280;66430;50.182;11.704;2023-01-15T05:59:47;92962.05;;;10.19;47.04
77366;BME280;66430;50.182;11.704;2023-01-15T06:02:18;92959.67;;;10.13;47.17
77366;BME280;66430;50.182;11.704;2023-01-15T06:04:38;92943.56;;;10.13;46.72
77366;BME280;66430;50.182;11.704;2023-01-15T06:07:04;92955.78;;;10.05;46.76
77366;BME280;66430;50.182;11.704;2023-01-15T06:09:29;92960.85;;;9.81;47.52
77366;BME280;66430;50.182;11.704;2023-01-15T06:11:55;92949.84;;;10.35;47.03
77366;BME280;66430;50.182;11.704;2023-01-15T06:14:20;92957.45;;;10.48;46.84
77366;BME280;66430;50.182;11.704;2023-01-15T06:16:45;93003.94;;;10.21;46.02
77366;BME280;66430;50.182;11.704;2023-01-15T06:19:12;93008.40;;;9.86;45.50
77366;BME280;66430;50.182;11.704;2023-01-15T06:21:37;93021.93;;;9.73;44.15
77366;BME280;66430;50.182;11.704;2023-01-15T06:24:03;93044.74;;;9.54;44.43
77366;BME280;66430;50.182;11.704;2023-01-15T06:26:28;93051.53;;;9.25;44.87
77366;BME280;66430;50.182;11.704;2023-01-15T06:28:53;93061.98;;;8.61;44.97
77366;BME280;66430;50.182;11.704;2023-01-15T06:31:20;93063.73;;;9.15;44.76
77366;BME280;66430;50.182;11.704;2023-01-15T06:33:44;93064.68;;;8.45;45.12
77366;BME280;66430;50.182;11.704;2023-01-15T06:36:11;93072.90;;;8.39;45.49
77366;BME280;66430;50.182;11.704;2023-01-15T06:38:35;93088.53;;;8.53;45.40
77366;BME280;66430;50.182;11.704;2023-01-15T06:41:01;93098.86;;;8.18;45.66
77366;BME280;66430;50.182;11.704;2023-01-15T06:43:26;93104.53;;;8.10;46.06
77366;BME280;66430;50.182;11.704;2023-01-15T06:45:51;93099.47;;;8.42;45.62
77366;BME280;66430;50.182;11.704;2023-01-15T06:48:17;93092.66;;;8.61;45.42
77366;BME280;66430;50.182;11.704;2023-01-15T06:50:42;93085.67;;;8.87;44.83
77366;BME280;66430;50.182;11.704;2023-01-15T06:53:08;93090.94;;;8.63;44.97
77366;BME280;66430;50.182;11.704;2023-01-15T06:55:33;93082.83;;;8.86;44.56
77366;BME280;66430;50.182;11.704;2023-01-15T06:58:01;93086.81;;;8.87;44.69
77366;BME280;66430;50.182;11.704;2023-01-15T07:00:24;93086.57;;;8.74;44.74
77366;BME280;66430;50.182;11.704;2023-01-15T07:02:50;93088.45;;;9.03;44.42
77366;BME280;66430;50.182;11.704;2023-01-15T07:05:22;93094.61;;;8.68;44.23
77366;BME280;66430;50.182;11.704;2023-01-15T07:07:41;93098.13;;;8.79;43.81
77366;BME280;66430;50.182;11.704;2023-01-15T07:10:08;93095.40;;;9.33;43.80
77366;BME280;66430;50.182;11.704;2023-01-15T07:12:34;93098.42;;;9.02;43.59
77366;BME280;66430;50.182;11.704;2023-01-15T07:14:57;93105.60;;;8.99;43.75
77366;BME280;66430;50.182;11.704;2023-01-15T07:17:22;93106.88;;;8.93;43.84
77366;BME280;66430;50.182;11.704;2023-01-15T07:19:48;93114.36;;;8.59;43.75
77366;BME280;66430;50.182;11.704;2023-01-15T07:22:13;93119.88;;;9.10;43.52
77366;BME280;66430;50.182;11.704;2023-01-15T07:24:39;93129.05;;;8.88;43.56
77366;BME280;66430;50.182;11.704;2023-01-15T07:27:05;93135.91;;;9.02;43.06
77366;BME280;66430;50.182;11.704;2023-01-15T07:29:30;93132.90;;;8.70;43.75
77366;BME280;66430;50.182;11.704;2023-01-15T07:31:56;93139.12;;;8.50;43.93
77366;BME280;66430;50.182;11.704;2023-01-15T07:34:21;93141.35;;;8.99;43.34
77366;BME280;66430;50.182;11.704;2023-01-15T07:36:46;93143.57;;;8.66;43.65
77366;BME280;66430;50.182;11.704;2023-01-15T07:39:12;93139.90;;;8.56;43.30
77366;BME280;66430;50.182;11.704;2023-01-15T07:41:37;93150.86;;;8.84;43.30
77366;BME280;66430;50.182;11.704;2023-01-15T07:44:03;93169.50;;;8.47;43.83
77366;BME280;66430;50.182;11.704;2023-01-15T07:46:28;93169.43;;;8.74;43.76
77366;BME280;66430;50.182;11.704;2023-01-15T07:48:54;93163.12;;;8.31;43.94
77366;BME280;66430;50.182;11.704;2023-01-15T07:51:19;93167.27;;;8.32;43.87
77366;BME280;66430;50.182;11.704;2023-01-15T07:53:45;93172.67;;;8.46;43.56
77366;BME280;66430;50.182;11.704;2023-01-15T07:56:10;93177.94;;;8.30;43.78
77366;BME280;66430;50.182;11.704;2023-01-15T07:58:36;93188.00;;;8.23;43.87
77366;BME280;66430;50.182;11.704;2023-01-15T08:01:01;93192.74;;;8.10;43.94
77366;BME280;66430;50.182;11.704;2023-01-15T08:03:27;93197.36;;;8.09;44.12
77366;BME280;66430;50.182;11.704;2023-01-15T08:05:52;93201.51;;;8.61;43.54
77366;BME280;66430;50.182;11.704;2023-01-15T08:08:18;93200.16;;;8.52;43.54
77366;BME280;66430;50.182;11.704;2023-01-15T08:10:43;93196.76;;;8.20;43.62
77366;BME280;66430;50.182;11.704;2023-01-15T08:13:09;93208.68;;;8.01;43.96
77366;BME280;66430;50.182;11.704;2023-01-15T08:15:38;93210.05;;;8.36;43.14
77366;BME280;66430;50.182;11.704;2023-01-15T08:18:00;93210.90;;;8.16;42.44
77366;BME280;66430;50.182;11.704;2023-01-15T08:20:26;93224.30;;;7.85;41.98
77366;BME280;66430;50.182;11.704;2023-01-15T08:22:51;93224.93;;;7.22;42.27
77366;BME280;66430;50.182;11.704;2023-01-15T08:25:18;93240.91;;;6.94;43.30
77366;BME280;66430;50.182;11.704;2023-01-15T08:27:42;93241.70;;;6.58;43.34
77366;BME280;66430;50.182;11.704;2023-01-15T08:30:10;93258.52;;;6.59;43.55
77366;BME280;66430;50.182;11.704;2023-01-15T08:32:33;93257.55;;;6.59;44.19
77366;BME280;66430;50.182;11.704;2023-01-15T08:34:58;93255.98;;;6.61;44.53
77366;BME280;66430;50.182;11.704;2023-01-15T08:37:24;93273.14;;;6.74;44.12
77366;BME280;66430;50.182;11.704;2023-01-15T08:39:49;93286.49;;;6.80;43.57
77366;BME280;66430;50.182;11.704;2023-01-15T08:42:15;93288.46;;;6.67;43.87
77366;BME280;66430;50.182;11.704;2023-01-15T08:44:40;93286.03;;;6.77;43.09
77366;BME280;66430;50.182;11.704;2023-01-15T08:47:06;93286.71;;;6.69;43.89
77366;BME280;66430;50.182;11.704;2023-01-15T08:49:31;93287.29;;;6.27;43.74
77366;BME280;66430;50.182;11.704;2023-01-15T08:51:57;93289.32;;;6.55;43.81
77366;BME280;66430;50.182;11.704;2023-01-15T08:54:23;93296.32;;;6.84;43.19
77366;BME280;66430;50.182;11.704;2023-01-15T08:56:48;93297.37;;;6.81;43.48
77366;BME280;66430;50.182;11.704;2023-01-15T08:59:14;93297.68;;;6.85;43.62
77366;BME280;66430;50.182;11.704;2023-01-15T09:01:40;93303.68;;;6.67;43.59
77366;BME280;66430;50.182;11.704;2023-01-15T09:04:05;93304.80;;;6.70;42.98
77366;BME280;66430;50.182;11.704;2023-01-15T09:06:30;93308.52;;;6.51;43.40
77366;BME280;66430;50.182;11.704;2023-01-15T09:09:08;93294.13;;;6.95;43.03
77366;BME280;66430;50.182;11.704;2023-01-15T09:11:21;93284.21;;;7.01;43.31
77366;BME280;66430;50.182;11.704;2023-01-15T09:13:47;93293.27;;;6.97;43.25
77366;BME280;66430;50.182;11.704;2023-01-15T09:16:13;93307.08;;;6.85;42.97
77366;BME280;66430;50.182;11.704;2023-01-15T09:18:39;93306.16;;;6.42;43.69
77366;BME280;66430;50.182;11.704;2023-01-15T09:21:04;93314.18;;;6.62;43.39
77366;BME280;66430;50.182;11.704;2023-01-15T09:23:29;93317.19;;;7.05;43.06
77366;BME280;66430;50.182;11.704;2023-01-15T09:25:56;93323.74;;;6.99;43.01
77366;BME280;66430;50.182;11.704;2023-01-15T09:28:20;93327.56;;;6.43;43.76
77366;BME280;66430;50.182;11.704;2023-01-15T09:30:46;93333.98;;;6.85;42.99
77366;BME280;66430;50.182;11.704;2023-01-15T09:33:11;93333.46;;;6.82;43.14
77366;BME280;66430;50.182;11.704;2023-01-15T09:35:36;93332.70;;;6.76;42.35
77366;BME280;66430;50.182;11.704;2023-01-15T09:38:02;93336.81;;;6.79;42.74
77366;BME280;66430;50.182;11.704;2023-01-15T09:40:40;93335.91;;;7.11;42.43
77366;BME280;66430;50.182;11.704;2023-01-15T09:42:57;93345.00;;;6.87;42.52
77366;BME280;66430;50.182;11.704;2023-01-15T09:45:22;93348.92;;;6.95;41.80
77366;BME280;66430;50.182;11.704;2023-01-15T09:47:53;93350.94;;;6.60;42.50
77366;BME280;66430;50.182;11.704;2023-01-15T09:50:19;93347.79;;;6.53;42.64
77366;BME280;66430;50.182;11.704;2023-01-15T09:52:48;93350.53;;;6.93;42.35
77366;BME280;66430;50.182;11.704;2023-01-15T09:55:06;93353.16;;;6.33;42.82
77366;BME280;66430;50.182;11.704;2023-01-15T09:57:27;93359.73;;;6.89;42.54
77366;BME280;66430;50.182;11.704;2023-01-15T09:59:53;93356.03;;;6.43;43.41
77366;BME280;66430;50.182;11.704;2023-01-15T10:02:23;93356.27;;;6.47;42.90
77366;BME280;66430;50.182;11.704;2023-01-15T10:04:46;93365.00;;;6.47;42.77
77366;BME280;66430;50.182;11.704;2023-01-15T10:07:20;93370.52;;;6.71;42.30
77366;BME280;66430;50.182;11.704;2023-01-15T10:09:37;93365.74;;;6.78;42.00
77366;BME280;66430;50.182;11.704;2023-01-15T10:12:03;93366.91;;;6.53;42.54
77366;BME280;66430;50.182;11.704;2023-01-15T10:14:34;93361.40;;;6.80;42.20
77366;BME280;66430;50.182;11.704;2023-01-15T10:16:50;93364.22;;;6.62;42.15
77366;BME280;66430;50.182;11.704;2023-01-15T10:19:22;93369.36;;;6.57;42.75
77366;BME280;66430;50.182;11.704;2023-01-15T10:21:48;93365.46;;;6.44;42.60
77366;BME280;66430;50.182;11.704;2023-01-15T10:24:13;93361.69;;;6.63;42.69
77366;BME280;66430;50.182;11.704;2023-01-15T10:26:36;93366.19;;;6.66;42.29
77366;BME280;66430;50.182;11.704;2023-01-15T10:29:00;93366.09;;;6.59;42.05
77366;BME280;66430;50.182;11.704;2023-01-15T10:31:33;93367.44;;;6.79;42.31
77366;BME280;66430;50.182;11.704;2023-01-15T10:33:58;93372.87;;;6.71;42.02
77366;BME280;66430;50.182;11.704;2023-01-15T10:36:18;93365.92;;;6.52;42.80
77366;BME280;66430;50.182;11.704;2023-01-15T10:38:46;93364.31;;;6.90;42.15
77366;BME280;66430;50.182;11.704;2023-01-15T10:41:16;93369.98;;;7.05;41.78
77366;BME280;66430;50.182;11.704;2023-01-15T10:43:41;93374.57;;;7.12;41.38
77366;BME280;66430;50.182;11.704;2023-01-15T10:45:59;93377.08;;;6.96;41.36
77366;BME280;66430;50.182;11.704;2023-01-15T10:48:29;93379.32;;;6.97;42.20
77366;BME280;66430;50.182;11.704;2023-01-15T10:50:49;93378.32;;;7.04;42.07
77366;BME280;66430;50.182;11.704;2023-01-15T10:53:18;93370.12;;;6.74;42.11
77366;BME280;66430;50.182;11.704;2023-01-15T10:55:41;93373.44;;;6.91;42.30
77366;BME280;66430;50.182;11.704;2023-01-15T10:58:12;93376.03;;;7.00;41.98
77366;BME280;66430;50.182;11.704;2023-01-15T11:00:30;93384.34;;;7.03;41.74
77366;BME280;66430;50.182;11.704;2023-01-15T11:03:00;93388.53;;;6.77;41.99
77366;BME280;66430;50.182;11.704;2023-01-15T11:05:21;93387.01;;;6.81;42.21
77366;BME280;66430;50.182;11.704;2023-01-15T11:07:48;93390.77;;;6.75;42.18
77366;BME280;66430;50.182;11.704;2023-01-15T11:10:14;93381.89;;;6.77;42.07
77366;BME280;66430;50.182;11.704;2023-01-15T11:12:38;93369.84;;;6.72;41.99
77366;BME280;66430;50.182;11.704;2023-01-15T11:15:14;93371.31;;;6.43;42.29
77366;BME280;66430;50.182;11.704;2023-01-15T11:17:32;93369.60;;;6.79;41.84
77366;BME280;66430;50.182;11.704;2023-01-15T11:19:54;93369.93;;;6.98;41.63
77366;BME280;66430;50.182;11.704;2023-01-15T11:22:19;93379.22;;;6.76;41.71
77366;BME280;66430;50.182;11.704;2023-01-15T11:24:48;93381.16;;;7.19;41.51
77366;BME280;66430;50.182;11.704;2023-01-15T11:27:15;93389.41;;;6.95;41.81
77366;BME280;66430;50.182;11.704;2023-01-15T11:29:36;93388.80;;;6.99;41.93
77366;BME280;66430;50.182;11.704;2023-01-15T11:32:02;93389.80;;;6.90;41.99
77366;BME280;66430;50.182;11.704;2023-01-15T11:34:27;93391.53;;;6.80;42.37
77366;BME280;66430;50.182;11.704;2023-01-15T11:37:01;93387.15;;;6.57;42.13
77366;BME280;66430;50.182;11.704;2023-01-15T11:39:22;93390.24;;;6.93;41.98
77366;BME280;66430;50.182;11.704;2023-01-15T11:41:43;93387.74;;;6.87;42.09
77366;BME280;66430;50.182;11.704;2023-01-15T11:44:09;93392.37;;;6.60;42.19
77366;BME280;66430;50.182;11.704;2023-01-15T11:46:35;93385.73;;;6.67;42.01
77366;BME280;66430;50.182;11.704;2023-01-15T11:49:07;93396.20;;;6.51;41.86
77366;BME280;66430;50.182;11.704;2023-01-15T11:51:27;93388.47;;;6.84;41.57
77366;BME280;66430;50.182;11.704;2023-01-15T11:53:57;93389.92;;;6.65;41.93
77366;BME280;66430;50.182;11.704;2023-01-15T11:56:19;93397.78;;;6.36;42.47
77366;BME280;66430;50.182;11.704;2023-01-15T11:58:45;93410.33;;;6.36;42.28
77366;BME280;66430;50.182;11.704;2023-01-15T12:01:11;93415.81;;;6.53;42.26
77366;BME280;66430;50.182;11.704;2023-01-15T12:03:36;93413.02;;;6.73;41.84
77366;BME280;66430;50.182;11.704;2023-01-15T12:06:01;93413.72;;;6.53;42.06
77366;BME280;66430;50.182;11.704;2023-01-15T12:08:37;93415.02;;;6.47;42.03
77366;BME280;66430;50.182;11.704;2023-01-15T12:10:56;93423.43;;;6.37;41.93
77366;BME280;66430;50.182;11.704;2023-01-15T12:13:22;93439.02;;;6.19;42.59
77366;BME280;66430;50.182;11.704;2023-01-15T12:15:46;93433.66;;;6.23;42.24
77366;BME280;66430;50.182;11.704;2023-01-15T12:18:30;93420.01;;;5.87;43.04
77366;BME280;66430;50.182;11.704;2023-01-15T12:20:42;93432.26;;;6.15;42.37
77366;BME280;66430;50.182;11.704;2023-01-15T12:23:10;93439.46;;;6.30;42.25
77366;BME280;66430;50.182;11.704;2023-01-15T12:25:30;93436.90;;;6.20;41.91
77366;BME280;66430;50.182;11.704;2023-01-15T12:27:58;93434.21;;;5.72;42.92
77366;BME280;66430;50.182;11.704;2023-01-15T12:30:22;93433.61;;;5.95;42.47
77366;BME280;66430;50.182;11.704;2023-01-15T12:32:43;93434.60;;;6.15;42.01
77366;BME280;66430;50.182;11.704;2023-01-15T12:35:12;93438.54;;;5.60;42.38
77366;BME280;66430;50.182;11.704;2023-01-15T12:37:37;93440.74;;;6.13;42.28
77366;BME280;66430;50.182;11.704;2023-01-15T12:39:59;93444.12;;;5.84;42.05
77366;BME280;66430;50.182;11.704;2023-01-15T12:42:24;93461.17;;;5.78;42.53
77366;BME280;66430;50.182;11.704;2023-01-15T12:44:50;93454.31;;;6.13;42.11
77366;BME280;66430;50.182;11.704;2023-01-15T12:47:17;93457.30;;;5.64;41.89
77366;BME280;66430;50.182;11.704;2023-01-15T12:49:42;93459.41;;;5.44;42.30
77366;BME280;66430;50.182;11.704;2023-01-15T12:52:08;93464.40;;;5.01;42.41